sensor_id;sensor_type;location;lat;lon;timestamp;P1;durP1;ratioP1;P2;durP2;ratioP2
58244;SDS011;44550;43.864;25.986;2022-12-10T00:01:51;119.53;;;45.72;;
58244;SDS011;44550;43.864;25.986;2022-12-10T00:05:51;92.72;;;22.45;;
58244;SDS011;44550;43.864;25.986;2022-12-10T00:09:51;128.77;;;23.25;;
58244;SDS011;44550;43.864;25.986;2022-12-10T00:17:52;79.85;;;43.33;;
58244;SDS011;44550;43.864;25.986;2022-12-10T00:25:51;106.15;;;30.38;;
58244;SDS011;44550;43.864;25.986;2022-12-10T00:29:53;182.50;;;24.65;;
58244;SDS011;44550;43.864;25.986;2022-12-10T00:33:53;95.68;;;22.75;;
58244;SDS011;44550;43.864;25.986;2022-12-10T00:37:54;148.93;;;25.95;;
58244;SDS011;44550;43.864;25.986;2022-12-10T00:41:54;101.82;;;40.65;;
58244;SDS011;44550;43.864;25.986;2022-12-10T00:45:57;383.65;;;44.00;;
58244;SDS011;44550;43.864;25.986;2022-12-10T00:49:56;331.38;;;44.42;;
58244;SDS011;44550;43.864;25.986;2022-12-10T00:57:56;290.70;;;33.80;;
58244;SDS011;44550;43.864;25.986;2022-12-10T01:06:06;339.90;;;46.80;;
58244;SDS011;44550;43.864;25.986;2022-12-10T01:10:08;332.80;;;46.30;;
58244;SDS011;44550;43.864;25.986;2022-12-10T01:14:08;317.60;;;40.30;;
58244;SDS011;44550;43.864;25.986;2022-12-10T01:18:12;311.25;;;39.38;;
58244;SDS011;44550;43.864;25.986;2022-12-10T01:22:12;426.00;;;44.63;;
58244;SDS011;44550;43.864;25.986;2022-12-10T01:26:13;282.33;;;34.35;;
58244;SDS011;44550;43.864;25.986;2022-12-10T01:30:14;402.13;;;52.08;;
58244;SDS011;44550;43.864;25.986;2022-12-10T01:34:16;364.52;;;45.35;;
58244;SDS011;44550;43.864;25.986;2022-12-10T01:38:15;171.40;;;31.48;;
58244;SDS011;44550;43.864;25.986;2022-12-10T01:46:15;156.82;;;22.73;;
58244;SDS011;44550;43.864;25.986;2022-12-10T01:54:17;287.55;;;38.33;;
58244;SDS011;44550;43.864;25.986;2022-12-10T01:58:19;283.73;;;31.70;;
58244;SDS011;44550;43.864;25.986;2022-12-10T02:02:21;338.55;;;38.47;;
58244;SDS011;44550;43.864;25.986;2022-12-10T02:06:35;241.60;;;27.70;;
58244;SDS011;44550;43.864;25.986;2022-12-10T02:10:46;114.25;;;23.77;;
58244;SDS011;44550;43.864;25.986;2022-12-10T02:14:58;193.45;;;25.40;;
58244;SDS011;44550;43.864;25.986;2022-12-10T02:19:03;254.52;;;31.58;;
58244;SDS011;44550;43.864;25.986;2022-12-10T02:23:10;252.18;;;46.25;;
58244;SDS011;44550;43.864;25.986;2022-12-10T02:27:14;225.50;;;29.73;;
58244;SDS011;44550;43.864;25.986;2022-12-10T02:31:26;176.40;;;22.23;;
58244;SDS011;44550;43.864;25.986;2022-12-10T02:35:30;220.52;;;24.25;;
58244;SDS011;44550;43.864;25.986;2022-12-10T02:39:35;78.88;;;16.60;;
58244;SDS011;44550;43.864;25.986;2022-12-10T02:43:39;303.67;;;37.47;;
58244;SDS011;44550;43.864;25.986;2022-12-10T02:47:41;190.05;;;28.55;;
58244;SDS011;44550;43.864;25.986;2022-12-10T02:51:42;116.18;;;21.42;;
58244;SDS011;44550;43.864;25.986;2022-12-10T03:00:01;125.60;;;21.00;;
58244;SDS011;44550;43.864;25.986;2022-12-10T03:04:13;101.55;;;19.38;;
58244;SDS011;44550;43.864;25.986;2022-12-10T03:08:17;75.85;;;13.68;;
58244;SDS011;44550;43.864;25.986;2022-12-10T03:12:21;81.22;;;14.70;;
58244;SDS011;44550;43.864;25.986;2022-12-10T03:16:28;115.15;;;16.33;;
58244;SDS011;44550;43.864;25.986;2022-12-10T03:20:35;76.15;;;16.55;;
58244;SDS011;44550;43.864;25.986;2022-12-10T03:24:38;48.47;;;15.23;;
58244;SDS011;44550;43.864;25.986;2022-12-10T03:28:44;69.13;;;13.02;;
58244;SDS011;44550;43.864;25.986;2022-12-10T03:32:48;81.80;;;14.80;;
58244;SDS011;44550;43.864;25.986;2022-12-10T03:36:50;67.80;;;14.00;;
58244;SDS011;44550;43.864;25.986;2022-12-10T03:40:51;92.00;;;13.70;;
58244;SDS011;44550;43.864;25.986;2022-12-10T03:48:50;54.75;;;13.77;;
58244;SDS011;44550;43.864;25.986;2022-12-10T03:52:52;80.10;;;13.98;;
58244;SDS011;44550;43.864;25.986;2022-12-10T03:56:52;97.72;;;14.00;;
58244;SDS011;44550;43.864;25.986;2022-12-10T04:00:51;53.47;;;25.95;;
58244;SDS011;44550;43.864;25.986;2022-12-10T04:08:53;40.80;;;12.35;;
58244;SDS011;44550;43.864;25.986;2022-12-10T04:12:55;48.67;;;14.18;;
58244;SDS011;44550;43.864;25.986;2022-12-10T04:17:07;56.72;;;14.25;;
58244;SDS011;44550;43.864;25.986;2022-12-10T04:21:07;112.40;;;48.95;;
58244;SDS011;44550;43.864;25.986;2022-12-10T04:25:24;68.82;;;25.90;;
58244;SDS011;44550;43.864;25.986;2022-12-10T04:29:41;45.03;;;14.70;;
58244;SDS011;44550;43.864;25.986;2022-12-10T04:33:40;47.53;;;13.63;;
58244;SDS011;44550;43.864;25.986;2022-12-10T04:45:43;41.97;;;13.23;;
58244;SDS011;44550;43.864;25.986;2022-12-10T04:49:42;70.82;;;26.45;;
58244;SDS011;44550;43.864;25.986;2022-12-10T04:53:42;61.30;;;14.68;;
58244;SDS011;44550;43.864;25.986;2022-12-10T04:57:44;35.65;;;11.52;;
58244;SDS011;44550;43.864;25.986;2022-12-10T05:01:43;34.80;;;11.70;;
58244;SDS011;44550;43.864;25.986;2022-12-10T05:05:44;43.92;;;15.45;;
58244;SDS011;44550;43.864;25.986;2022-12-10T05:13:45;44.28;;;16.67;;
58244;SDS011;44550;43.864;25.986;2022-12-10T05:17:45;39.88;;;17.60;;
58244;SDS011;44550;43.864;25.986;2022-12-10T05:21:44;86.22;;;33.05;;
58244;SDS011;44550;43.864;25.986;2022-12-10T05:26:01;49.90;;;19.38;;
58244;SDS011;44550;43.864;25.986;2022-12-10T05:30:05;57.38;;;18.48;;
58244;SDS011;44550;43.864;25.986;2022-12-10T05:34:06;78.07;;;21.48;;
58244;SDS011;44550;43.864;25.986;2022-12-10T05:38:08;51.97;;;19.63;;
58244;SDS011;44550;43.864;25.986;2022-12-10T05:42:08;63.17;;;19.38;;
58244;SDS011;44550;43.864;25.986;2022-12-10T05:46:10;23.90;;;14.00;;
58244;SDS011;44550;43.864;25.986;2022-12-10T05:50:11;18.25;;;12.63;;
58244;SDS011;44550;43.864;25.986;2022-12-10T05:54:11;28.83;;;18.38;;
58244;SDS011;44550;43.864;25.986;2022-12-10T06:02:12;21.23;;;12.93;;
58244;SDS011;44550;43.864;25.986;2022-12-10T06:06:12;20.50;;;14.68;;
58244;SDS011;44550;43.864;25.986;2022-12-10T06:10:12;29.35;;;18.13;;
58244;SDS011;44550;43.864;25.986;2022-12-10T06:14:11;26.65;;;18.08;;
58244;SDS011;44550;43.864;25.986;2022-12-10T06:22:12;32.13;;;18.02;;
58244;SDS011;44550;43.864;25.986;2022-12-10T06:26:12;21.48;;;14.10;;
58244;SDS011;44550;43.864;25.986;2022-12-10T06:30:13;23.33;;;15.88;;
58244;SDS011;44550;43.864;25.986;2022-12-10T06:34:15;23.75;;;16.60;;
58244;SDS011;44550;43.864;25.986;2022-12-10T06:38:14;22.30;;;16.92;;
58244;SDS011;44550;43.864;25.986;2022-12-10T06:42:13;22.27;;;17.08;;
58244;SDS011;44550;43.864;25.986;2022-12-10T06:50:16;38.08;;;28.92;;
58244;SDS011;44550;43.864;25.986;2022-12-10T06:54:16;27.60;;;21.52;;
58244;SDS011;44550;43.864;25.986;2022-12-10T06:58:15;20.65;;;15.70;;
58244;SDS011;44550;43.864;25.986;2022-12-10T07:06:17;22.05;;;17.30;;
58244;SDS011;44550;43.864;25.986;2022-12-10T07:10:17;23.70;;;18.10;;
58244;SDS011;44550;43.864;25.986;2022-12-10T07:14:18;22.77;;;17.40;;
58244;SDS011;44550;43.864;25.986;2022-12-10T07:18:17;21.50;;;15.68;;
58244;SDS011;44550;43.864;25.986;2022-12-10T07:26:20;25.23;;;16.48;;
58244;SDS011;44550;43.864;25.986;2022-12-10T07:30:19;20.83;;;14.50;;
58244;SDS011;44550;43.864;25.986;2022-12-10T07:38:20;26.33;;;18.05;;
58244;SDS011;44550;43.864;25.986;2022-12-10T07:42:20;22.05;;;18.77;;
58244;SDS011;44550;43.864;25.986;2022-12-10T07:50:20;54.60;;;33.90;;
58244;SDS011;44550;43.864;25.986;2022-12-10T07:54:21;17.42;;;9.60;;
58244;SDS011;44550;43.864;25.986;2022-12-10T07:58:20;64.95;;;30.05;;
58244;SDS011;44550;43.864;25.986;2022-12-10T08:02:20;56.10;;;30.45;;
58244;SDS011;44550;43.864;25.986;2022-12-10T08:06:20;243.65;;;132.38;;
58244;SDS011;44550;43.864;25.986;2022-12-10T08:10:22;27.63;;;16.70;;
58244;SDS011;44550;43.864;25.986;2022-12-10T08:14:21;31.60;;;17.40;;
58244;SDS011;44550;43.864;25.986;2022-12-10T08:22:20;15.80;;;10.93;;
58244;SDS011;44550;43.864;25.986;2022-12-10T08:26:23;28.55;;;15.23;;
58244;SDS011;44550;43.864;25.986;2022-12-10T08:30:24;21.27;;;15.23;;
58244;SDS011;44550;43.864;25.986;2022-12-10T08:34:23;20.52;;;14.18;;
58244;SDS011;44550;43.864;25.986;2022-12-10T08:38:23;15.82;;;9.85;;
58244;SDS011;44550;43.864;25.986;2022-12-10T08:46:24;13.07;;;11.00;;
58244;SDS011;44550;43.864;25.986;2022-12-10T08:50:26;13.70;;;9.90;;
58244;SDS011;44550;43.864;25.986;2022-12-10T08:54:26;19.20;;;12.02;;
58244;SDS011;44550;43.864;25.986;2022-12-10T08:58:28;12.73;;;9.85;;
58244;SDS011;44550;43.864;25.986;2022-12-10T09:02:27;13.95;;;11.50;;
58244;SDS011;44550;43.864;25.986;2022-12-10T09:06:27;20.50;;;12.65;;
58244;SDS011;44550;43.864;25.986;2022-12-10T09:14:28;15.02;;;8.85;;
58244;SDS011;44550;43.864;25.986;2022-12-10T09:18:27;14.35;;;9.32;;
58244;SDS011;44550;43.864;25.986;2022-12-10T09:22:26;16.08;;;10.82;;
58244;SDS011;44550;43.864;25.986;2022-12-10T09:30:27;10.65;;;9.13;;
58244;SDS011;44550;43.864;25.986;2022-12-10T09:34:27;14.63;;;10.32;;
58244;SDS011;44550;43.864;25.986;2022-12-10T09:42:30;15.38;;;10.00;;
58244;SDS011;44550;43.864;25.986;2022-12-10T09:46:44;19.02;;;13.63;;
58244;SDS011;44550;43.864;25.986;2022-12-10T09:50:50;18.08;;;13.07;;
58244;SDS011;44550;43.864;25.986;2022-12-10T09:54:55;16.90;;;10.82;;
58244;SDS011;44550;43.864;25.986;2022-12-10T09:58:57;20.45;;;14.55;;
58244;SDS011;44550;43.864;25.986;2022-12-10T10:03:02;21.30;;;12.82;;
58244;SDS011;44550;43.864;25.986;2022-12-10T10:07:03;53.53;;;26.85;;
58244;SDS011;44550;43.864;25.986;2022-12-10T10:11:04;20.60;;;14.93;;
58244;SDS011;44550;43.864;25.986;2022-12-10T10:15:09;29.33;;;17.08;;
58244;SDS011;44550;43.864;25.986;2022-12-10T10:19:15;64.75;;;36.88;;
58244;SDS011;44550;43.864;25.986;2022-12-10T10:23:16;22.67;;;18.00;;
58244;SDS011;44550;43.864;25.986;2022-12-10T10:27:16;42.70;;;27.48;;
58244;SDS011;44550;43.864;25.986;2022-12-10T10:31:18;21.98;;;17.58;;
58244;SDS011;44550;43.864;25.986;2022-12-10T10:35:24;35.05;;;20.48;;
58244;SDS011;44550;43.864;25.986;2022-12-10T10:39:26;34.45;;;20.95;;
58244;SDS011;44550;43.864;25.986;2022-12-10T10:43:30;76.80;;;48.47;;
58244;SDS011;44550;43.864;25.986;2022-12-10T10:47:32;21.70;;;17.27;;
58244;SDS011;44550;43.864;25.986;2022-12-10T10:51:35;28.13;;;19.33;;
58244;SDS011;44550;43.864;25.986;2022-12-10T10:55:42;28.00;;;19.67;;
58244;SDS011;44550;43.864;25.986;2022-12-10T10:59:42;28.77;;;17.65;;
58244;SDS011;44550;43.864;25.986;2022-12-10T11:07:47;33.30;;;22.02;;
58244;SDS011;44550;43.864;25.986;2022-12-10T11:11:49;24.02;;;15.85;;
58244;SDS011;44550;43.864;25.986;2022-12-10T11:15:54;27.98;;;17.90;;
58244;SDS011;44550;43.864;25.986;2022-12-10T11:19:58;37.97;;;24.27;;
58244;SDS011;44550;43.864;25.986;2022-12-10T11:24:10;29.08;;;18.75;;
58244;SDS011;44550;43.864;25.986;2022-12-10T11:28:14;26.00;;;18.58;;
58244;SDS011;44550;43.864;25.986;2022-12-10T11:32:33;29.08;;;20.70;;
58244;SDS011;44550;43.864;25.986;2022-12-10T11:36:55;23.23;;;15.88;;
58244;SDS011;44550;43.864;25.986;2022-12-10T11:41:10;95.20;;;43.72;;
58244;SDS011;44550;43.864;25.986;2022-12-10T11:45:18;29.92;;;18.20;;
58244;SDS011;44550;43.864;25.986;2022-12-10T11:49:23;23.20;;;16.13;;
58244;SDS011;44550;43.864;25.986;2022-12-10T11:53:40;20.38;;;15.93;;
58244;SDS011;44550;43.864;25.986;2022-12-10T11:57:55;18.90;;;14.93;;
58244;SDS011;44550;43.864;25.986;2022-12-10T13:18:18;40.65;;;28.00;;
58244;SDS011;44550;43.864;25.986;2022-12-10T13:22:55;50.50;;;35.20;;
58244;SDS011;44550;43.864;25.986;2022-12-10T13:27:02;174.25;;;119.00;;
58244;SDS011;44550;43.864;25.986;2022-12-10T13:31:22;234.18;;;200.45;;
58244;SDS011;44550;43.864;25.986;2022-12-10T13:36:27;83.95;;;61.10;;
58244;SDS011;44550;43.864;25.986;2022-12-10T13:40:42;38.65;;;28.52;;
58244;SDS011;44550;43.864;25.986;2022-12-10T13:45:23;115.95;;;94.38;;
58244;SDS011;44550;43.864;25.986;2022-12-10T13:49:34;59.92;;;41.10;;
58244;SDS011;44550;43.864;25.986;2022-12-10T13:58:57;29.20;;;18.67;;
58244;SDS011;44550;43.864;25.986;2022-12-10T14:08:12;35.83;;;21.95;;
58244;SDS011;44550;43.864;25.986;2022-12-10T14:12:17;49.95;;;36.33;;
58244;SDS011;44550;43.864;25.986;2022-12-10T14:16:28;37.75;;;22.05;;
58244;SDS011;44550;43.864;25.986;2022-12-10T14:20:31;58.28;;;38.50;;
58244;SDS011;44550;43.864;25.986;2022-12-10T14:24:39;65.60;;;47.28;;
58244;SDS011;44550;43.864;25.986;2022-12-10T14:28:40;70.53;;;49.55;;
58244;SDS011;44550;43.864;25.986;2022-12-10T14:32:44;67.25;;;47.78;;
58244;SDS011;44550;43.864;25.986;2022-12-10T14:36:46;45.55;;;31.52;;
58244;SDS011;44550;43.864;25.986;2022-12-10T14:40:47;49.67;;;32.30;;
58244;SDS011;44550;43.864;25.986;2022-12-10T14:44:49;62.67;;;34.20;;
58244;SDS011;44550;43.864;25.986;2022-12-10T14:48:55;39.80;;;28.58;;
58244;SDS011;44550;43.864;25.986;2022-12-10T14:52:57;50.67;;;35.53;;
58244;SDS011;44550;43.864;25.986;2022-12-10T14:57:00;50.67;;;34.67;;
58244;SDS011;44550;43.864;25.986;2022-12-10T15:01:04;67.63;;;47.20;;
58244;SDS011;44550;43.864;25.986;2022-12-10T15:05:11;79.97;;;51.92;;
58244;SDS011;44550;43.864;25.986;2022-12-10T15:09:15;222.13;;;132.23;;
58244;SDS011;44550;43.864;25.986;2022-12-10T15:13:21;79.88;;;58.55;;
58244;SDS011;44550;43.864;25.986;2022-12-10T15:17:37;71.10;;;50.70;;
58244;SDS011;44550;43.864;25.986;2022-12-10T15:21:50;53.92;;;35.33;;
58244;SDS011;44550;43.864;25.986;2022-12-10T15:25:57;45.42;;;28.85;;
58244;SDS011;44550;43.864;25.986;2022-12-10T15:29:59;57.42;;;39.38;;
58244;SDS011;44550;43.864;25.986;2022-12-10T15:34:28;63.13;;;45.80;;
58244;SDS011;44550;43.864;25.986;2022-12-10T15:38:36;69.78;;;53.63;;
58244;SDS011;44550;43.864;25.986;2022-12-10T15:42:38;90.95;;;75.63;;
58244;SDS011;44550;43.864;25.986;2022-12-10T15:46:46;58.50;;;38.15;;
58244;SDS011;44550;43.864;25.986;2022-12-10T15:58:52;62.80;;;43.33;;
58244;SDS011;44550;43.864;25.986;2022-12-10T16:02:56;51.85;;;29.70;;
58244;SDS011;44550;43.864;25.986;2022-12-10T16:06:59;38.25;;;22.83;;
58244;SDS011;44550;43.864;25.986;2022-12-10T16:11:06;51.17;;;38.47;;
58244;SDS011;44550;43.864;25.986;2022-12-10T16:15:18;56.42;;;39.20;;
58244;SDS011;44550;43.864;25.986;2022-12-10T16:19:22;46.95;;;32.58;;
58244;SDS011;44550;43.864;25.986;2022-12-10T16:23:27;55.95;;;40.67;;
58244;SDS011;44550;43.864;25.986;2022-12-10T16:27:52;64.72;;;46.70;;
58244;SDS011;44550;43.864;25.986;2022-12-10T16:32:15;60.55;;;45.88;;
58244;SDS011;44550;43.864;25.986;2022-12-10T16:36:24;41.13;;;28.83;;
58244;SDS011;44550;43.864;25.986;2022-12-10T16:40:51;45.22;;;33.85;;
58244;SDS011;44550;43.864;25.986;2022-12-10T16:45:45;48.85;;;32.88;;
58244;SDS011;44550;43.864;25.986;2022-12-10T16:51:03;37.50;;;27.35;;
58244;SDS011;44550;43.864;25.986;2022-12-10T16:55:50;37.88;;;28.17;;
58244;SDS011;44550;43.864;25.986;2022-12-10T17:00:05;39.25;;;25.98;;
58244;SDS011;44550;43.864;25.986;2022-12-10T17:04:21;43.08;;;28.42;;
58244;SDS011;44550;43.864;25.986;2022-12-10T17:08:22;38.53;;;26.20;;
58244;SDS011;44550;43.864;25.986;2022-12-10T17:12:27;40.60;;;29.23;;
58244;SDS011;44550;43.864;25.986;2022-12-10T17:16:32;42.45;;;28.13;;
58244;SDS011;44550;43.864;25.986;2022-12-10T17:21:07;200.98;;;151.25;;
58244;SDS011;44550;43.864;25.986;2022-12-10T17:25:11;43.28;;;28.25;;
58244;SDS011;44550;43.864;25.986;2022-12-10T17:29:31;40.63;;;30.30;;
58244;SDS011;44550;43.864;25.986;2022-12-10T17:33:51;49.28;;;35.30;;
58244;SDS011;44550;43.864;25.986;2022-12-10T17:37:52;62.78;;;40.42;;
58244;SDS011;44550;43.864;25.986;2022-12-10T17:41:52;118.70;;;76.53;;
58244;SDS011;44550;43.864;25.986;2022-12-10T17:45:51;142.88;;;94.10;;
58244;SDS011;44550;43.864;25.986;2022-12-10T17:49:54;110.05;;;65.90;;
58244;SDS011;44550;43.864;25.986;2022-12-10T17:53:55;82.50;;;55.00;;
58244;SDS011;44550;43.864;25.986;2022-12-10T17:57:55;60.97;;;42.05;;
58244;SDS011;44550;43.864;25.986;2022-12-10T18:01:55;60.03;;;41.75;;
58244;SDS011;44550;43.864;25.986;2022-12-10T18:05:55;83.13;;;64.10;;
58244;SDS011;44550;43.864;25.986;2022-12-10T18:09:57;42.85;;;31.48;;
58244;SDS011;44550;43.864;25.986;2022-12-10T18:13:57;49.03;;;34.05;;
58244;SDS011;44550;43.864;25.986;2022-12-10T18:17:57;47.75;;;34.90;;
58244;SDS011;44550;43.864;25.986;2022-12-10T18:21:58;48.15;;;30.08;;
58244;SDS011;44550;43.864;25.986;2022-12-10T18:30:01;83.82;;;58.40;;
58244;SDS011;44550;43.864;25.986;2022-12-10T18:34:03;95.25;;;70.38;;
58244;SDS011;44550;43.864;25.986;2022-12-10T18:38:04;84.53;;;57.80;;
58244;SDS011;44550;43.864;25.986;2022-12-10T18:46:05;61.28;;;37.10;;
58244;SDS011;44550;43.864;25.986;2022-12-10T18:50:11;54.55;;;36.00;;
58244;SDS011;44550;43.864;25.986;2022-12-10T18:54:17;74.47;;;53.65;;
58244;SDS011;44550;43.864;25.986;2022-12-10T18:58:18;110.15;;;82.72;;
58244;SDS011;44550;43.864;25.986;2022-12-10T19:02:18;165.20;;;120.88;;
58244;SDS011;44550;43.864;25.986;2022-12-10T19:06:19;79.95;;;57.65;;
58244;SDS011;44550;43.864;25.986;2022-12-10T19:10:20;65.72;;;41.55;;
58244;SDS011;44550;43.864;25.986;2022-12-10T19:14:23;52.88;;;35.28;;
58244;SDS011;44550;43.864;25.986;2022-12-10T19:18:22;130.45;;;96.07;;
58244;SDS011;44550;43.864;25.986;2022-12-10T19:22:22;117.95;;;81.38;;
58244;SDS011;44550;43.864;25.986;2022-12-10T19:26:23;61.65;;;41.60;;
58244;SDS011;44550;43.864;25.986;2022-12-10T19:30:28;77.93;;;54.22;;
58244;SDS011;44550;43.864;25.986;2022-12-10T19:34:28;72.47;;;50.53;;
58244;SDS011;44550;43.864;25.986;2022-12-10T19:38:29;99.63;;;73.20;;
58244;SDS011;44550;43.864;25.986;2022-12-10T19:42:28;88.88;;;54.60;;
58244;SDS011;44550;43.864;25.986;2022-12-10T19:46:29;49.10;;;36.20;;
58244;SDS011;44550;43.864;25.986;2022-12-10T19:50:30;65.05;;;43.25;;
58244;SDS011;44550;43.864;25.986;2022-12-10T19:54:31;58.92;;;34.85;;
58244;SDS011;44550;43.864;25.986;2022-12-10T19:58:31;53.17;;;37.15;;
58244;SDS011;44550;43.864;25.986;2022-12-10T20:02:32;50.63;;;33.35;;
58244;SDS011;44550;43.864;25.986;2022-12-10T20:06:34;37.30;;;30.40;;
58244;SDS011;44550;43.864;25.986;2022-12-10T20:10:35;28.65;;;21.42;;
58244;SDS011;44550;43.864;25.986;2022-12-10T20:18:36;32.05;;;20.17;;
58244;SDS011;44550;43.864;25.986;2022-12-10T20:22:35;24.45;;;14.93;;
58244;SDS011;44550;43.864;25.986;2022-12-10T20:26:36;16.55;;;12.32;;
58244;SDS011;44550;43.864;25.986;2022-12-10T20:30:37;21.58;;;12.00;;
58244;SDS011;44550;43.864;25.986;2022-12-10T20:34:38;32.90;;;18.58;;
58244;SDS011;44550;43.864;25.986;2022-12-10T20:38:37;22.60;;;17.73;;
58244;SDS011;44550;43.864;25.986;2022-12-10T20:42:37;30.10;;;20.92;;
58244;SDS011;44550;43.864;25.986;2022-12-10T20:46:36;45.85;;;29.65;;
58244;SDS011;44550;43.864;25.986;2022-12-10T20:50:39;27.45;;;20.13;;
58244;SDS011;44550;43.864;25.986;2022-12-10T20:54:39;29.00;;;17.33;;
58244;SDS011;44550;43.864;25.986;2022-12-10T21:02:38;36.85;;;21.63;;
58244;SDS011;44550;43.864;25.986;2022-12-10T21:06:40;31.67;;;22.23;;
58244;SDS011;44550;43.864;25.986;2022-12-10T21:10:41;33.90;;;21.67;;
58244;SDS011;44550;43.864;25.986;2022-12-10T21:14:50;32.10;;;18.58;;
58244;SDS011;44550;43.864;25.986;2022-12-10T21:19:00;31.20;;;21.42;;
58244;SDS011;44550;43.864;25.986;2022-12-10T21:27:01;33.15;;;20.65;;
58244;SDS011;44550;43.864;25.986;2022-12-10T21:31:00;30.42;;;20.15;;
58244;SDS011;44550;43.864;25.986;2022-12-10T21:35:01;25.05;;;16.10;;
58244;SDS011;44550;43.864;25.986;2022-12-10T21:39:02;23.25;;;18.02;;
58244;SDS011;44550;43.864;25.986;2022-12-10T21:43:02;31.58;;;20.75;;
58244;SDS011;44550;43.864;25.986;2022-12-10T21:47:13;28.95;;;18.42;;
58244;SDS011;44550;43.864;25.986;2022-12-10T21:51:13;28.88;;;20.30;;
58244;SDS011;44550;43.864;25.986;2022-12-10T21:55:14;28.73;;;18.88;;
58244;SDS011;44550;43.864;25.986;2022-12-10T21:59:16;65.82;;;36.05;;
58244;SDS011;44550;43.864;25.986;2022-12-10T22:03:15;61.47;;;38.85;;
58244;SDS011;44550;43.864;25.986;2022-12-10T22:07:15;57.90;;;37.40;;
58244;SDS011;44550;43.864;25.986;2022-12-10T22:11:17;43.88;;;28.55;;
58244;SDS011;44550;43.864;25.986;2022-12-10T22:15:17;51.00;;;32.45;;
58244;SDS011;44550;43.864;25.986;2022-12-10T22:19:17;46.85;;;31.02;;
58244;SDS011;44550;43.864;25.986;2022-12-10T22:23:16;29.15;;;20.10;;
58244;SDS011;44550;43.864;25.986;2022-12-10T22:27:18;28.20;;;21.00;;
58244;SDS011;44550;43.864;25.986;2022-12-10T22:31:17;30.45;;;21.45;;
58244;SDS011;44550;43.864;25.986;2022-12-10T22:35:18;43.13;;;30.40;;
58244;SDS011;44550;43.864;25.986;2022-12-10T22:39:18;43.65;;;31.70;;
58244;SDS011;44550;43.864;25.986;2022-12-10T22:43:20;91.28;;;58.88;;
58244;SDS011;44550;43.864;25.986;2022-12-10T22:47:39;55.67;;;34.90;;
58244;SDS011;44550;43.864;25.986;2022-12-10T22:55:38;27.73;;;19.95;;
58244;SDS011;44550;43.864;25.986;2022-12-10T22:59:39;26.17;;;15.68;;
58244;SDS011;44550;43.864;25.986;2022-12-10T23:03:41;26.65;;;17.58;;
58244;SDS011;44550;43.864;25.986;2022-12-10T23:07:40;23.45;;;15.48;;
58244;SDS011;44550;43.864;25.986;2022-12-10T23:11:41;22.42;;;15.23;;
58244;SDS011;44550;43.864;25.986;2022-12-10T23:16:05;21.23;;;12.23;;
58244;SDS011;44550;43.864;25.986;2022-12-10T23:20:07;22.48;;;13.85;;
58244;SDS011;44550;43.864;25.986;2022-12-10T23:24:07;22.77;;;14.18;;
58244;SDS011;44550;43.864;25.986;2022-12-10T23:28:06;67.50;;;38.30;;
58244;SDS011;44550;43.864;25.986;2022-12-10T23:32:08;177.98;;;83.20;;
58244;SDS011;44550;43.864;25.986;2022-12-10T23:36:08;67.95;;;38.33;;
58244;SDS011;44550;43.864;25.986;2022-12-10T23:40:09;74.88;;;51.25;;
58244;SDS011;44550;43.864;25.986;2022-12-10T23:44:09;50.10;;;30.83;;
58244;SDS011;44550;43.864;25.986;2022-12-10T23:52:10;48.88;;;35.65;;
58244;SDS011;44550;43.864;25.986;2022-12-10T23:56:12;73.85;;;53.45;;
